Aviation Digital Data Service (ADDS)

Output produced by METARs form (2155 UTC 19 February 2018)
found at http://www.aviationweather.gov/adds/metars/
 
FSIA 192100Z AUTO 29005KT 250V330 CAVOK 27/24 Q1009
TAF FSIA 191700Z 1918/2018 25005KT 9999 SCT024 
     TEMPO 1918/2006 8000 -SHRA FEW018CB BKN022 
     PROB40 
     TEMPO 2006/2018 5000 -SHRA/SHRA FEW016CB BKN020